Time;durP1;ratioP1;P1;durP2;ratioP2;P2;SDS_P1;SDS_P2;PMS_P1;PMS_P2;Temp;Humidity;BMP_temperature;BMP_pressure;BME280_temperature;BME280_humidity;BME280_pressure;Samples;Min_cycle;Max_cycle;Signal;HPM_P1;HPM_P2
2023/03/10 12:33:44;;;;;;;;;;;;;;;;;;5479349;23;20022;-86
2023/03/10 17:37:41;;;;;;;;;;;;;;;;;;4892969;29;20006;-92
2023/03/10 17:40:08;;;;;;;;;;;;;;;;;;4890931;29;19923;-89
2023/03/10 17:42:33;;;;;;;;;;;;;;;;;;4884192;29;19937;-89
2023/03/10 17:44:59;;;;;;;;;;;;;;;;;;4883839;29;20367;-89
2023/03/10 17:47:24;;;;;;;;;;;;;;;;;;4916950;29;20285;-89
2023/03/10 17:49:49;;;;;;;;;;;;;;;;;;4896394;29;19915;-91
2023/03/10 17:52:17;;;;;;;;;;;;;;;;;;4898071;29;19915;-91
2023/03/10 17:54:42;;;;;;;;;;;;;;;;;;4897651;29;19975;-92
2023/03/10 17:57:08;;;;;;;;;;;;;;;;;;4898452;29;19920;-90
2023/03/10 17:59:37;;;;;;;;;;;;;;;;;;4898523;29;19915;-88
2023/03/10 18:02:03;;;;;;;;;;;;;;;;;;4898552;29;19969;-90
2023/03/10 18:04:29;;;;;;;;;;;;;;;;;;4898407;29;19916;-91
2023/03/10 18:06:54;;;;;;;;;;;;;;;;;;4896717;29;19931;-91
2023/03/10 18:09:19;;;;;;;;;;;;;;;;;;4879943;29;19916;-90
2023/03/10 18:11:45;;;;;;;;;;;;;;;;;;4879654;29;19919;-92
2023/03/10 18:14:10;;;;;;;;;;;;;;;;;;4879839;29;19938;-91
2023/03/10 18:16:37;;;;;;;;;;;;;;;;;;4879525;29;20327;-91
2023/03/10 18:19:02;;;;;;;;;;;;;;;;;;4879839;29;19995;-90
2023/03/10 18:21:28;;;;;;;;;;;;;;;;;;4879505;29;19970;-90
2023/03/10 18:23:54;;;;;;;;;;;;;;;;;;4881917;29;19922;-96
2023/03/10 18:26:23;;;;;;;;;;;;;;;;;;4894650;29;19916;-90
2023/03/10 18:28:48;;;;;;;;;;;;;;;;;;4899287;29;19916;-89
2023/03/10 18:31:19;;;;;;;;;;;;;;;;;;4899307;29;19980;-91
2023/03/10 18:33:44;;;;;;;;;;;;;;;;;;4898108;29;19915;-91
2023/03/10 18:36:12;;;;;;;;;;;;;;;;;;4900722;29;19994;-88
2023/03/10 18:38:38;;;;;;;;;;;;;;;;;;4917813;29;20285;-89
2023/03/10 18:41:03;;;;;;;;;;;;;;;;;;4900915;29;19915;-89
2023/03/10 18:43:30;;;;;;;;;;;;;;;;;;4917333;29;19915;-88
2023/03/10 18:45:56;;;;;;;;;;;;;;;;;;4900996;29;20393;-89
2023/03/10 18:48:27;;;;;;;;;;;;;;;;;;4900736;29;19915;-89
2023/03/10 18:50:52;;;;;;;;;;;;;;;;;;4900878;29;20385;-88
2023/03/10 18:53:18;;;;;;;;;;;;;;;;;;4900662;29;19915;-87
2023/03/10 18:55:43;;;;;;;;;;;;;;;;;;4918432;29;20014;-91
2023/03/10 18:58:09;;;;;;;;;;;;;;;;;;4901063;29;20370;-88
2023/03/10 19:00:34;;;;;;;;;;;;;;;;;;4902628;29;20002;-88
2023/03/10 19:02:59;;;;;;;;;;;;;;;;;;4901449;29;19962;-87
2023/03/10 19:05:25;;;;;;;;;;;;;;;;;;4917708;29;19919;-89
2023/03/10 19:07:50;;;;;;;;;;;;;;;;;;4901594;29;19986;-88
2023/03/10 19:10:16;;;;;;;;;;;;;;;;;;4900950;29;19922;-89
2023/03/10 19:12:44;;;;;;;;;;;;;;;;;;4918067;29;20002;-91
2023/03/10 19:15:11;;;;;;;;;;;;;;;;;;4917749;29;19915;-90
2023/03/10 19:17:36;;;;;;;;;;;;;;;;;;4900519;29;19982;-88
2023/03/10 19:20:03;;;;;;;;;;;;;;;;;;4917451;29;20290;-89
2023/03/10 19:22:30;;;;;;;;;;;;;;;;;;4900771;29;19925;-88
2023/03/10 19:24:56;;;;;;;;;;;;;;;;;;4901142;29;19915;-91
2023/03/10 19:27:21;;;;;;;;;;;;;;;;;;4901372;29;20376;-90
2023/03/10 19:29:51;;;;;;;;;;;;;;;;;;4900726;29;20420;-89
2023/03/10 19:32:16;;;;;;;;;;;;;;;;;;4900830;29;19922;-89
2023/03/10 19:34:42;;;;;;;;;;;;;;;;;;4901529;29;20353;-89
2023/03/10 19:37:07;;;;;;;;;;;;;;;;;;4918454;29;19923;-86
2023/03/10 19:39:32;;;;;;;;;;;;;;;;;;4917636;29;19922;-87
2023/03/10 19:41:57;;;;;;;;;;;;;;;;;;4917328;29;19911;-88
2023/03/10 19:44:23;;;;;;;;;;;;;;;;;;4918470;29;20369;-91
2023/03/10 19:46:48;;;;;;;;;;;;;;;;;;4900774;29;19973;-86
2023/03/10 19:49:16;;;;;;;;;;;;;;;;;;4917808;29;19961;-89
2023/03/10 19:51:42;;;;;;;;;;;;;;;;;;4900215;29;19919;-89
2023/03/10 19:54:07;;;;;;;;;;;;;;;;;;4902001;29;19911;-89
2023/03/10 19:56:32;;;;;;;;;;;;;;;;;;4920857;29;20374;-89
2023/03/10 19:58:58;;;;;;;;;;;;;;;;;;4903662;29;20021;-88
2023/03/10 20:01:25;;;;;;;;;;;;;;;;;;4903523;29;19915;-89
2023/03/10 20:03:51;;;;;;;;;;;;;;;;;;4903747;29;19919;-89
2023/03/10 20:06:17;;;;;;;;;;;;;;;;;;4919586;29;19922;-88
2023/03/10 20:08:42;;;;;;;;;;;;;;;;;;4903576;29;19923;-87
2023/03/10 20:11:12;;;;;;;;;;;;;;;;;;4920311;29;19915;-88
2023/03/10 20:13:37;;;;;;;;;;;;;;;;;;4903267;29;19925;-88
2023/03/10 20:16:03;;;;;;;;;;;;;;;;;;4903303;29;20021;-90
2023/03/10 20:18:28;;;;;;;;;;;;;;;;;;4920146;29;20354;-88
2023/03/10 20:20:54;;;;;;;;;;;;;;;;;;4920077;29;19976;-89
2023/03/10 20:23:19;;;;;;;;;;;;;;;;;;4920386;29;19915;-91
2023/03/10 20:25:45;;;;;;;;;;;;;;;;;;4902390;29;20347;-92
2023/03/10 20:28:10;;;;;;;;;;;;;;;;;;4895190;29;19916;-92
2023/03/10 20:30:36;;;;;;;;;;;;;;;;;;4897995;29;19923;-88
2023/03/10 20:33:02;;;;;;;;;;;;;;;;;;4903229;29;19959;-92
2023/03/10 20:35:28;;;;;;;;;;;;;;;;;;4885004;29;19927;-92
2023/03/10 20:37:54;;;;;;;;;;;;;;;;;;4884598;29;19920;-92
2023/03/10 20:40:22;;;;;;;;;;;;;;;;;;4893196;29;19966;-91
2023/03/10 20:42:51;;;;;;;;;;;;;;;;;;4897715;29;20005;-94
2023/03/10 20:45:16;;;;;;;;;;;;;;;;;;4918712;29;19915;-89
2023/03/10 20:47:42;;;;;;;;;;;;;;;;;;4919912;29;19915;-91
2023/03/10 20:50:08;;;;;;;;;;;;;;;;;;4911663;29;19967;-89
2023/03/10 20:52:34;;;;;;;;;;;;;;;;;;4914640;29;19941;-91
2023/03/10 20:55:00;;;;;;;;;;;;;;;;;;4921758;29;20352;-90
2023/03/10 20:57:26;;;;;;;;;;;;;;;;;;4921520;29;20022;-91
2023/03/10 20:59:51;;;;;;;;;;;;;;;;;;4902611;29;19917;-92
2023/03/10 21:02:17;;;;;;;;;;;;;;;;;;4902530;29;19917;-93
2023/03/10 21:04:45;;;;;;;;;;;;;;;;;;4913015;29;19922;-96
2023/03/10 21:07:18;;;;;;;;;;;;;;;;;;4943298;28;19922;-96
2023/03/10 21:09:45;;;;;;;;;;;;;;;;;;4960099;28;19903;-93
2023/03/10 21:12:17;;;;;;;;;;;;;;;;;;4938052;29;19966;-96
2023/03/10 21:14:46;;;;;;;;;;;;;;;;;;4946778;29;19914;-94
2023/03/10 21:17:11;;;;;;;;;;;;;;;;;;4952171;29;20009;-96
2023/03/10 21:19:43;;;;;;;;;;;;;;;;;;4954909;29;20289;-95
2023/03/10 21:22:08;;;;;;;;;;;;;;;;;;4912569;29;19958;-93
2023/03/10 21:24:33;;;;;;;;;;;;;;;;;;4902773;29;20412;-94
2023/03/10 21:26:59;;;;;;;;;;;;;;;;;;4902878;29;19922;-95
2023/03/10 21:29:25;;;;;;;;;;;;;;;;;;4902985;29;19919;-96
2023/03/10 21:31:50;;;;;;;;;;;;;;;;;;4903568;29;20009;-91
2023/03/10 21:34:16;;;;;;;;;;;;;;;;;;4919308;29;19915;-93
2023/03/10 21:36:41;;;;;;;;;;;;;;;;;;4902323;29;19919;-90
2023/03/10 21:39:07;;;;;;;;;;;;;;;;;;4901797;29;19922;-90
2023/03/10 21:41:33;;;;;;;;;;;;;;;;;;4901867;29;20294;-90
2023/03/10 21:43:58;;;;;;;;;;;;;;;;;;4902033;29;19915;-94
2023/03/10 21:46:24;;;;;;;;;;;;;;;;;;4908329;29;19920;-95
2023/03/10 21:48:51;;;;;;;;;;;;;;;;;;4906262;29;19994;-92
2023/03/10 21:51:17;;;;;;;;;;;;;;;;;;4919067;29;19915;-93
2023/03/10 21:53:42;;;;;;;;;;;;;;;;;;4902259;29;19915;-94
2023/03/10 21:56:08;;;;;;;;;;;;;;;;;;4901768;29;19915;-89
2023/03/10 21:58:36;;;;;;;;;;;;;;;;;;4901969;29;19973;-91
2023/03/10 22:01:02;;;;;;;;;;;;;;;;;;4902044;29;19915;-92
2023/03/10 22:03:27;;;;;;;;;;;;;;;;;;4901760;29;19914;-92
2023/03/10 22:05:53;;;;;;;;;;;;;;;;;;4905923;29;20393;-96
2023/03/10 22:08:19;;;;;;;;;;;;;;;;;;4905904;29;19931;-93
2023/03/10 22:10:45;;;;;;;;;;;;;;;;;;4902212;29;19911;-93
2023/03/10 22:13:10;;;;;;;;;;;;;;;;;;4901648;29;19915;-92
2023/03/10 22:15:36;;;;;;;;;;;;;;;;;;4901795;29;19970;-91
2023/03/10 22:18:01;;;;;;;;;;;;;;;;;;4901806;29;19915;-94
2023/03/10 22:20:27;;;;;;;;;;;;;;;;;;4901943;29;19919;-94
2023/03/10 22:22:52;;;;;;;;;;;;;;;;;;4902141;29;19915;-96
2023/03/10 22:25:18;;;;;;;;;;;;;;;;;;4903245;29;20286;-95
2023/03/10 22:27:44;;;;;;;;;;;;;;;;;;4902164;29;19983;-96
2023/03/10 22:30:12;;;;;;;;;;;;;;;;;;4901862;29;19915;-96
2023/03/10 22:32:38;;;;;;;;;;;;;;;;;;4902522;29;20369;-95
2023/03/10 22:35:03;;;;;;;;;;;;;;;;;;4902331;29;19919;-91
2023/03/10 22:37:29;;;;;;;;;;;;;;;;;;4898857;29;19942;-93
2023/03/10 22:39:54;;;;;;;;;;;;;;;;;;4914442;29;19926;-93
2023/03/10 22:42:20;;;;;;;;;;;;;;;;;;4899305;29;19966;-94
2023/03/10 22:44:45;;;;;;;;;;;;;;;;;;4898531;29;19920;-94
2023/03/10 22:47:10;;;;;;;;;;;;;;;;;;4898699;29;20005;-94
2023/03/10 22:49:36;;;;;;;;;;;;;;;;;;4898559;29;19915;-94
2023/03/10 22:52:05;;;;;;;;;;;;;;;;;;4898469;29;19922;-94
2023/03/10 22:54:31;;;;;;;;;;;;;;;;;;4898639;29;20020;-94
2023/03/10 22:56:56;;;;;;;;;;;;;;;;;;4898436;29;19998;-93
2023/03/10 22:59:21;;;;;;;;;;;;;;;;;;4898660;29;20018;-95
2023/03/10 23:01:47;;;;;;;;;;;;;;;;;;4898365;29;19919;-94
2023/03/10 23:04:12;;;;;;;;;;;;;;;;;;4898377;29;19915;-93
2023/03/10 23:06:38;;;;;;;;;;;;;;;;;;4898784;29;19939;-94
2023/03/10 23:09:03;;;;;;;;;;;;;;;;;;4898373;29;19915;-95
2023/03/10 23:11:29;;;;;;;;;;;;;;;;;;4899299;29;20006;-96
2023/03/10 23:13:54;;;;;;;;;;;;;;;;;;4903049;29;19916;-94
